Time;durP1;ratioP1;P1;durP2;ratioP2;P2;SDS_P1;SDS_P2;PMS_P1;PMS_P2;Temp;Humidity;BMP_temperature;BMP_pressure;BME280_temperature;BME280_humidity;BME280_pressure;Samples;Min_cycle;Max_cycle;Signal;HPM_P1;HPM_P2
2022/07/18 00:00:22;;;;;;;2.87;2.10;;;;;;;;;;5051166;28;20460;-95
2022/07/18 00:02:50;;;;;;;2.33;2.20;;;;;;;;;;5065583;28;20861;-96
2022/07/18 00:05:19;;;;;;;2.57;2.17;;;;;;;;;;5048082;28;20446;-96
2022/07/18 00:07:45;;;;;;;2.03;1.93;;;;;;;;;;5055276;28;20453;-95
2022/07/18 00:10:11;;;;;;;2.10;2.00;;;;;;;;;;5048290;28;20437;-93
2022/07/18 00:12:37;;;;;;;2.00;1.90;;;;;;;;;;5048681;28;20430;-95
2022/07/18 00:15:04;;;;;;;2.60;2.33;;;;;;;;;;5042954;28;20618;-95
2022/07/18 00:17:31;;;;;;;2.20;2.10;;;;;;;;;;5061725;28;20430;-96
2022/07/18 00:19:56;;;;;;;2.60;2.40;;;;;;;;;;5068028;28;20444;-95
2022/07/18 00:22:23;;;;;;;5.77;2.17;;;;;;;;;;5072965;28;20393;-95
2022/07/18 00:24:49;;;;;;;2.13;2.13;;;;;;;;;;5051642;28;20841;-95
2022/07/18 00:27:15;;;;;;;1.93;1.80;;;;;;;;;;5080019;28;20425;-96
2022/07/18 00:29:41;;;;;;;2.07;1.97;;;;;;;;;;5047555;28;20452;-96
2022/07/18 00:32:08;;;;;;;2.40;2.20;;;;;;;;;;5062502;28;20447;-96
2022/07/18 00:34:34;;;;;;;2.23;2.13;;;;;;;;;;5043496;28;20556;-94
2022/07/18 00:37:06;;;;;;;2.00;2.00;;;;;;;;;;5071368;28;20430;-95
2022/07/18 00:39:32;;;;;;;1.80;1.80;;;;;;;;;;5065466;28;20455;-96
2022/07/18 00:41:58;;;;;;;4.40;2.43;;;;;;;;;;5060539;28;20826;-95
2022/07/18 00:44:25;;;;;;;2.50;2.30;;;;;;;;;;5068994;28;20429;-95
2022/07/18 00:46:52;;;;;;;1.97;1.87;;;;;;;;;;5051471;28;20433;-94
2022/07/18 00:49:18;;;;;;;2.07;2.07;;;;;;;;;;5059494;28;20459;-96
2022/07/18 00:51:44;;;;;;;2.10;2.10;;;;;;;;;;5077207;28;20429;-95
2022/07/18 00:54:11;;;;;;;1.70;1.60;;;;;;;;;;5074111;28;20532;-94
2022/07/18 00:56:36;;;;;;;2.57;2.30;;;;;;;;;;5058812;28;20436;-95
2022/07/18 00:59:04;;;;;;;2.20;2.10;;;;;;;;;;5073007;28;20906;-94
2022/07/18 01:01:42;;;;;;;3.33;2.07;;;;;;;;;;5084038;28;20400;-95
2022/07/18 01:04:09;;;;;;;2.17;2.17;;;;;;;;;;5023111;28;20449;-95
2022/07/18 01:06:35;;;;;;;2.20;2.10;;;;;;;;;;5067878;28;20433;-94
2022/07/18 01:09:01;;;;;;;3.60;2.10;;;;;;;;;;5061435;28;20433;-93
2022/07/18 01:11:28;;;;;;;2.83;2.73;;;;;;;;;;5061305;28;20417;-94
2022/07/18 01:13:57;;;;;;;2.43;2.33;;;;;;;;;;5041203;28;20524;-94
2022/07/18 01:16:23;;;;;;;2.37;2.17;;;;;;;;;;5050334;28;20409;-95
2022/07/18 01:18:50;;;;;;;2.93;2.33;;;;;;;;;;5051193;28;20532;-96
2022/07/18 01:21:17;;;;;;;1.63;1.63;;;;;;;;;;5057013;28;20461;-95
2022/07/18 01:23:44;;;;;;;2.23;2.13;;;;;;;;;;5065146;28;20454;-92
2022/07/18 01:26:10;;;;;;;2.00;1.90;;;;;;;;;;5038190;28;20410;-95
2022/07/18 01:28:37;;;;;;;1.77;1.63;;;;;;;;;;5064610;28;20451;-95
2022/07/18 01:31:03;;;;;;;2.10;2.00;;;;;;;;;;5086263;28;20420;-96
2022/07/18 01:33:31;;;;;;;1.83;1.83;;;;;;;;;;5065336;28;20975;-94
2022/07/18 01:35:59;;;;;;;1.60;1.60;;;;;;;;;;5054125;28;20460;-95
2022/07/18 01:38:25;;;;;;;2.17;2.07;;;;;;;;;;5059280;28;20437;-95
2022/07/18 01:40:51;;;;;;;2.00;2.00;;;;;;;;;;5050851;28;20939;-95
2022/07/18 01:43:17;;;;;;;2.20;2.00;;;;;;;;;;5060720;28;20532;-95
2022/07/18 01:45:43;;;;;;;2.47;2.20;;;;;;;;;;5028334;28;20438;-96
2022/07/18 01:48:09;;;;;;;3.97;2.27;;;;;;;;;;5055524;28;20541;-95
2022/07/18 01:50:35;;;;;;;2.50;2.50;;;;;;;;;;5047262;28;20429;-95
2022/07/18 01:53:01;;;;;;;2.40;1.97;;;;;;;;;;5075721;28;20432;-94
2022/07/18 01:55:27;;;;;;;2.23;2.13;;;;;;;;;;5063518;28;20485;-95
2022/07/18 01:57:53;;;;;;;2.30;2.10;;;;;;;;;;5056176;28;20458;-94
2022/07/18 02:00:19;;;;;;;1.33;1.33;;;;;;;;;;5058728;28;20429;-93
2022/07/18 02:02:45;;;;;;;1.90;1.90;;;;;;;;;;5056442;28;20469;-96
2022/07/18 02:05:11;;;;;;;2.23;1.93;;;;;;;;;;5061868;28;20440;-95
2022/07/18 02:07:39;;;;;;;2.50;2.30;;;;;;;;;;5055143;28;20460;-96
2022/07/18 02:10:06;;;;;;;2.50;2.30;;;;;;;;;;5052144;28;20422;-94
2022/07/18 02:12:32;;;;;;;2.10;2.00;;;;;;;;;;5073427;28;20432;-94
2022/07/18 02:14:58;;;;;;;2.33;1.87;;;;;;;;;;5060404;28;20461;-94
2022/07/18 02:17:24;;;;;;;3.53;2.30;;;;;;;;;;5051544;28;20503;-95
2022/07/18 02:19:50;;;;;;;2.30;2.30;;;;;;;;;;5049224;28;20473;-95
2022/07/18 02:22:16;;;;;;;3.30;2.33;;;;;;;;;;5047972;28;20425;-95
2022/07/18 02:24:43;;;;;;;2.60;2.50;;;;;;;;;;5051798;28;20418;-94
2022/07/18 02:27:09;;;;;;;2.13;2.03;;;;;;;;;;5040472;28;20499;-93
2022/07/18 02:29:35;;;;;;;2.10;2.00;;;;;;;;;;5045024;28;20796;-94
2022/07/18 02:32:02;;;;;;;2.73;2.00;;;;;;;;;;5057289;28;20457;-95
2022/07/18 02:34:28;;;;;;;2.03;1.93;;;;;;;;;;5039691;28;20880;-94
2022/07/18 02:36:54;;;;;;;1.93;1.87;;;;;;;;;;5046993;28;20518;-93
2022/07/18 02:39:20;;;;;;;2.57;2.47;;;;;;;;;;5057427;28;20773;-95
2022/07/18 02:41:46;;;;;;;3.47;2.10;;;;;;;;;;5057950;28;20418;-93
2022/07/18 02:44:12;;;;;;;1.80;1.70;;;;;;;;;;5067054;28;20484;-95
2022/07/18 02:46:38;;;;;;;2.60;2.40;;;;;;;;;;5078624;28;20907;-94
2022/07/18 02:49:04;;;;;;;2.03;1.93;;;;;;;;;;5056824;28;20418;-94
2022/07/18 02:51:30;;;;;;;1.93;1.83;;;;;;;;;;5048887;28;20464;-95
2022/07/18 02:53:56;;;;;;;1.97;1.97;;;;;;;;;;5055581;28;20492;-94
2022/07/18 02:56:22;;;;;;;2.37;2.17;;;;;;;;;;5042104;28;21017;-95
2022/07/18 02:58:48;;;;;;;6.17;2.37;;;;;;;;;;5046948;28;20459;-95
2022/07/18 03:01:14;;;;;;;2.20;2.10;;;;;;;;;;5037658;28;20426;-95
2022/07/18 03:03:40;;;;;;;1.93;1.90;;;;;;;;;;5055857;28;20444;-95
2022/07/18 03:06:06;;;;;;;2.00;1.90;;;;;;;;;;5034468;28;20440;-92
2022/07/18 03:08:32;;;;;;;1.80;1.80;;;;;;;;;;5054231;28;20429;-93
2022/07/18 03:10:59;;;;;;;3.23;3.03;;;;;;;;;;5055845;28;20441;-92
2022/07/18 03:13:27;;;;;;;2.40;1.80;;;;;;;;;;5078885;28;20468;-92
2022/07/18 03:15:53;;;;;;;1.90;1.80;;;;;;;;;;5077646;28;20424;-92
2022/07/18 03:18:22;;;;;;;2.10;2.10;;;;;;;;;;5079180;28;20494;-91
2022/07/18 03:20:48;;;;;;;1.77;1.67;;;;;;;;;;5077221;28;20442;-92
2022/07/18 03:23:18;;;;;;;1.60;1.60;;;;;;;;;;5073396;28;20440;-91
2022/07/18 03:25:47;;;;;;;2.07;1.80;;;;;;;;;;5040136;28;20473;-92
2022/07/18 03:28:13;;;;;;;4.50;2.87;;;;;;;;;;5055267;28;20434;-88
2022/07/18 03:30:39;;;;;;;2.40;2.40;;;;;;;;;;5094809;28;20429;-91
2022/07/18 03:33:05;;;;;;;2.63;2.43;;;;;;;;;;5058703;28;20433;-92
2022/07/18 03:35:31;;;;;;;2.73;2.63;;;;;;;;;;5077722;28;20469;-91
2022/07/18 03:37:57;;;;;;;8.60;3.10;;;;;;;;;;5059139;28;20526;-92
2022/07/18 03:40:23;;;;;;;2.90;2.20;;;;;;;;;;5076264;28;20452;-90
2022/07/18 03:42:49;;;;;;;2.53;1.90;;;;;;;;;;5048848;28;20435;-91
2022/07/18 03:45:15;;;;;;;1.93;1.93;;;;;;;;;;5059462;28;20468;-92
2022/07/18 03:47:41;;;;;;;1.87;1.77;;;;;;;;;;5094944;28;20449;-92
2022/07/18 03:50:08;;;;;;;2.23;2.23;;;;;;;;;;5059512;28;20441;-91
2022/07/18 03:52:34;;;;;;;3.43;3.23;;;;;;;;;;5093906;28;20432;-92
2022/07/18 03:55:01;;;;;;;3.03;2.27;;;;;;;;;;5076277;28;20815;-90
2022/07/18 03:57:27;;;;;;;2.80;2.67;;;;;;;;;;5096799;28;20485;-90
2022/07/18 03:59:53;;;;;;;2.30;2.30;;;;;;;;;;5058829;28;20433;-91
2022/07/18 04:02:19;;;;;;;2.20;2.00;;;;;;;;;;5094736;28;20425;-91
2022/07/18 04:04:46;;;;;;;8.43;1.97;;;;;;;;;;5057866;28;20441;-92
2022/07/18 04:07:14;;;;;;;2.30;2.30;;;;;;;;;;5095272;28;20440;-91
2022/07/18 04:09:40;;;;;;;2.33;2.30;;;;;;;;;;5075110;28;20447;-88
2022/07/18 04:12:08;;;;;;;2.53;2.43;;;;;;;;;;5068686;28;20429;-92
2022/07/18 04:14:35;;;;;;;2.10;2.00;;;;;;;;;;5056658;28;20473;-91
2022/07/18 04:17:01;;;;;;;3.70;1.60;;;;;;;;;;5065608;28;20425;-92
2022/07/18 04:19:27;;;;;;;2.60;2.50;;;;;;;;;;5075944;28;20450;-92
2022/07/18 04:21:53;;;;;;;2.30;2.10;;;;;;;;;;5095015;28;20408;-87
2022/07/18 04:24:19;;;;;;;2.37;2.17;;;;;;;;;;5054094;28;20465;-91
2022/07/18 04:26:48;;;;;;;4.77;2.73;;;;;;;;;;5076502;28;20436;-92
2022/07/18 04:29:16;;;;;;;3.30;2.53;;;;;;;;;;5057635;28;20429;-89
2022/07/18 04:31:44;;;;;;;2.57;2.47;;;;;;;;;;4954185;23;10001449;-93
2022/07/18 04:34:10;;;;;;;2.70;2.50;;;;;;;;;;5039478;28;20634;-93
2022/07/18 04:36:36;;;;;;;1.93;1.83;;;;;;;;;;5047592;28;20426;-90
2022/07/18 04:39:03;;;;;;;2.60;2.50;;;;;;;;;;5035082;28;20486;-91
2022/07/18 04:41:31;;;;;;;4.17;2.70;;;;;;;;;;5042773;28;20446;-88
2022/07/18 04:43:59;;;;;;;2.60;2.60;;;;;;;;;;5076836;28;20456;-92
2022/07/18 04:46:26;;;;;;;2.43;2.33;;;;;;;;;;5038495;28;20439;-92
2022/07/18 04:48:57;;;;;;;3.80;2.80;;;;;;;;;;5087228;28;20457;-86
2022/07/18 04:51:26;;;;;;;1.90;1.73;;;;;;;;;;5041434;28;20462;-91
2022/07/18 04:53:54;;;;;;;2.83;2.20;;;;;;;;;;5044245;28;20466;-92
2022/07/18 04:56:26;;;;;;;5.90;3.20;;;;;;;;;;5044428;28;20450;-87
2022/07/18 04:59:06;;;;;;;5.07;2.83;;;;;;;;;;5035066;28;20442;-92
2022/07/18 05:01:34;;;;;;;2.30;2.30;;;;;;;;;;5029838;28;20912;-93
2022/07/18 05:04:08;;;;;;;2.40;2.30;;;;;;;;;;5085501;28;20433;-92
2022/07/18 05:06:35;;;;;;;2.80;2.70;;;;;;;;;;5038897;28;20426;-92
2022/07/18 05:09:01;;;;;;;3.47;2.20;;;;;;;;;;5049873;28;20445;-92
2022/07/18 05:11:27;;;;;;;2.50;2.30;;;;;;;;;;5048941;28;20434;-92
2022/07/18 05:13:56;;;;;;;4.47;2.67;;;;;;;;;;5066801;28;20471;-93
2022/07/18 05:16:24;;;;;;;4.13;2.63;;;;;;;;;;5047586;28;20477;-92
2022/07/18 05:18:53;;;;;;;1.87;1.87;;;;;;;;;;5050695;28;20442;-88
2022/07/18 05:21:30;;;;;;;3.53;3.33;;;;;;;;;;5069897;28;20433;-91
2022/07/18 05:23:59;;;;;;;3.97;2.40;;;;;;;;;;5055768;28;20429;-93
2022/07/18 05:26:25;;;;;;;2.27;2.17;;;;;;;;;;5278967;23;20489;-88
2022/07/18 05:28:54;;;;;;;3.73;2.33;;;;;;;;;;5017905;28;20799;-90
2022/07/18 05:31:20;;;;;;;2.50;2.27;;;;;;;;;;5018173;28;20443;-91
2022/07/18 05:33:46;;;;;;;4.03;2.30;;;;;;;;;;5033987;28;20474;-87
2022/07/18 05:36:15;;;;;;;2.60;2.40;;;;;;;;;;5016780;28;20426;-91
2022/07/18 05:38:41;;;;;;;2.30;2.30;;;;;;;;;;5023329;28;20806;-91
2022/07/18 05:41:08;;;;;;;3.37;2.10;;;;;;;;;;5025451;28;20440;-90
2022/07/18 05:43:36;;;;;;;2.17;2.03;;;;;;;;;;5033443;28;20428;-92
2022/07/18 05:46:02;;;;;;;1.63;1.63;;;;;;;;;;5014765;28;20525;-90
2022/07/18 05:48:31;;;;;;;2.10;2.00;;;;;;;;;;5036071;28;20503;-92
2022/07/18 05:50:57;;;;;;;4.57;2.33;;;;;;;;;;5032420;28;20436;-91
2022/07/18 05:53:23;;;;;;;1.80;1.80;;;;;;;;;;5035153;28;21113;-89
2022/07/18 05:55:49;;;;;;;3.30;2.27;;;;;;;;;;5031674;28;20443;-91
2022/07/18 05:58:18;;;;;;;4.43;2.23;;;;;;;;;;5013517;28;20444;-94
2022/07/18 06:00:44;;;;;;;3.43;2.17;;;;;;;;;;5029565;28;20424;-93
2022/07/18 06:03:21;;;;;;;;;;;;;;;;;;;;;
2022/07/18 06:05:47;;;;;;;1.80;1.80;;;;;;;;;;5049944;28;20518;-93
2022/07/18 06:08:13;;;;;;;2.20;2.10;;;;;;;;;;5047675;28;20552;-91
2022/07/18 06:10:42;;;;;;;2.20;2.10;;;;;;;;;;5047387;28;20430;-92
2022/07/18 06:13:08;;;;;;;1.87;1.77;;;;;;;;;;5031221;28;20426;-92
2022/07/18 06:15:35;;;;;;;3.03;1.90;;;;;;;;;;5022818;28;20486;-91
2022/07/18 06:18:01;;;;;;;2.23;2.00;;;;;;;;;;5049706;28;20427;-91
2022/07/18 06:20:30;;;;;;;3.83;1.80;;;;;;;;;;5040086;28;20423;-89
2022/07/18 06:22:56;;;;;;;1.57;1.50;;;;;;;;;;5022718;28;20429;-91
2022/07/18 06:25:22;;;;;;;3.20;2.27;;;;;;;;;;5044882;28;20430;-92
2022/07/18 06:27:48;;;;;;;3.87;2.13;;;;;;;;;;5062911;28;20510;-92
2022/07/18 06:30:22;;;;;;;2.57;1.80;;;;;;;;;;5029637;28;20431;-93
2022/07/18 06:32:48;;;;;;;2.20;2.00;;;;;;;;;;5037295;28;20423;-92
2022/07/18 06:35:19;;;;;;;1.50;1.50;;;;;;;;;;5048463;28;20554;-90
2022/07/18 06:37:52;;;;;;;2.93;2.07;;;;;;;;;;5051371;28;20422;-93
2022/07/18 06:40:20;;;;;;;2.20;2.10;;;;;;;;;;5036916;28;20410;-92
2022/07/18 06:42:47;;;;;;;3.00;2.20;;;;;;;;;;5048966;28;20438;-92
2022/07/18 06:45:13;;;;;;;3.23;1.90;;;;;;;;;;5046608;28;20427;-93
2022/07/18 06:47:48;;;;;;;2.10;1.60;;;;;;;;;;5030630;28;20419;-93
2022/07/18 06:50:15;;;;;;;2.20;2.10;;;;;;;;;;5027302;28;20529;-93
2022/07/18 06:52:45;;;;;;;6.27;3.00;;;;;;;;;;5051220;28;20923;-94
2022/07/18 06:55:12;;;;;;;2.07;1.87;;;;;;;;;;5051916;28;20477;-92
2022/07/18 06:57:38;;;;;;;2.07;1.97;;;;;;;;;;5035655;28;20431;-90
2022/07/18 07:00:08;;;;;;;1.57;1.47;;;;;;;;;;5045743;28;20430;-94
2022/07/18 07:02:37;;;;;;;3.63;1.40;;;;;;;;;;5049001;28;20427;-93
2022/07/18 07:05:09;;;;;;;1.80;1.70;;;;;;;;;;5053888;28;20406;-89
2022/07/18 07:07:42;;;;;;;3.53;2.57;;;;;;;;;;5060480;28;20484;-94
2022/07/18 07:10:11;;;;;;;3.37;1.90;;;;;;;;;;5044118;28;20483;-94
2022/07/18 07:12:44;;;;;;;3.30;1.57;;;;;;;;;;5030762;28;20942;-91
2022/07/18 07:15:13;;;;;;;2.77;1.73;;;;;;;;;;5049424;28;20462;-93
2022/07/18 07:18:08;;;;;;;4.70;2.10;;;;;;;;;;5044539;28;20431;-94
2022/07/18 07:20:34;;;;;;;1.97;1.90;;;;;;;;;;5011004;28;20952;-93
2022/07/18 07:23:09;;;;;;;3.30;3.10;;;;;;;;;;5032632;28;20438;-94
2022/07/18 07:25:37;;;;;;;3.20;1.60;;;;;;;;;;5040482;28;20426;-91
2022/07/18 07:28:06;;;;;;;1.47;1.47;;;;;;;;;;5035249;28;20486;-93
2022/07/18 07:30:35;;;;;;;5.67;2.07;;;;;;;;;;5010183;28;20422;-93
2022/07/18 07:33:21;;;;;;;1.53;1.53;;;;;;;;;;5027656;28;20479;-90
2022/07/18 07:35:48;;;;;;;1.30;1.30;;;;;;;;;;5030513;28;20443;-94
2022/07/18 07:38:18;;;;;;;1.73;1.60;;;;;;;;;;5051606;28;20501;-92
2022/07/18 07:46:39;;;;;;;1.60;1.57;;;;;;;;;;5235325;22;20486;-92
2022/07/18 07:49:24;;;;;;;1.70;1.60;;;;;;;;;;5034719;28;20443;-88
2022/07/18 07:54:38;;;;;;;1.90;1.80;;;;;;;;;;5189458;22;20505;-91
2022/07/18 07:57:04;;;;;;;1.63;1.53;;;;;;;;;;5020016;28;20486;-91
2022/07/18 07:59:31;;;;;;;3.40;1.70;;;;;;;;;;5032073;28;20975;-90
2022/07/18 08:01:58;;;;;;;1.77;1.70;;;;;;;;;;5018309;28;20841;-92
2022/07/18 08:04:27;;;;;;;1.80;1.70;;;;;;;;;;5021677;28;20446;-90
2022/07/18 08:06:56;;;;;;;1.87;1.40;;;;;;;;;;5015779;28;20498;-87
2022/07/18 08:09:22;;;;;;;4.50;1.47;;;;;;;;;;5004616;28;20439;-91
2022/07/18 08:11:48;;;;;;;4.60;2.00;;;;;;;;;;4666480;28;10001223;-91
2022/07/18 08:14:14;;;;;;;1.43;1.43;;;;;;;;;;5009148;28;20466;-90
2022/07/18 08:16:40;;;;;;;1.87;1.40;;;;;;;;;;5009077;28;20443;-91
2022/07/18 08:19:06;;;;;;;1.33;1.23;;;;;;;;;;5010229;28;20505;-92
2022/07/18 08:21:32;;;;;;;1.20;1.20;;;;;;;;;;5021359;28;20957;-92
2022/07/18 08:23:58;;;;;;;1.67;1.33;;;;;;;;;;5016813;28;20426;-87
2022/07/18 08:26:24;;;;;;;2.10;2.00;;;;;;;;;;5018751;28;20434;-89
2022/07/18 08:28:50;;;;;;;1.73;1.53;;;;;;;;;;5013230;28;20435;-83
2022/07/18 08:31:18;;;;;;;1.10;1.10;;;;;;;;;;5008720;28;20540;-92
2022/07/18 08:33:44;;;;;;;1.60;1.60;;;;;;;;;;5011533;28;20729;-92
2022/07/18 08:36:10;;;;;;;2.57;1.20;;;;;;;;;;5017887;28;20439;-88
2022/07/18 08:38:38;;;;;;;0.87;0.87;;;;;;;;;;5021514;28;20422;-90
2022/07/18 08:41:04;;;;;;;1.50;1.40;;;;;;;;;;5009798;28;20465;-94
2022/07/18 08:43:30;;;;;;;3.20;1.23;;;;;;;;;;5025184;28;20442;-92
2022/07/18 08:46:01;;;;;;;1.40;1.40;;;;;;;;;;5013739;28;20424;-91
2022/07/18 08:48:29;;;;;;;1.20;1.20;;;;;;;;;;5024119;28;20491;-87
2022/07/18 08:50:55;;;;;;;1.70;1.43;;;;;;;;;;5026730;28;20442;-92
2022/07/18 08:53:21;;;;;;;1.60;1.13;;;;;;;;;;5027673;28;20518;-92
2022/07/18 08:55:48;;;;;;;2.50;1.77;;;;;;;;;;4999071;28;21144;-91
2022/07/18 08:58:15;;;;;;;1.17;1.10;;;;;;;;;;5013455;28;20446;-90
2022/07/18 09:00:41;;;;;;;2.77;1.20;;;;;;;;;;5015090;28;20984;-91
2022/07/18 09:03:07;;;;;;;1.20;1.10;;;;;;;;;;5015396;28;20443;-91
2022/07/18 09:05:33;;;;;;;1.40;1.40;;;;;;;;;;5030749;28;20422;-91
2022/07/18 09:08:19;;;;;;;1.70;1.70;;;;;;;;;;5010285;28;20418;-89
2022/07/18 09:10:55;;;;;;;2.33;1.40;;;;;;;;;;5012996;28;20446;-89
2022/07/18 09:13:31;;;;;;;2.03;1.60;;;;;;;;;;5017396;28;20411;-90
2022/07/18 09:16:11;;;;;;;1.37;1.27;;;;;;;;;;5010607;28;20968;-91
2022/07/18 09:18:39;;;;;;;1.33;1.33;;;;;;;;;;5002213;28;20400;-92
2022/07/18 09:21:12;;;;;;;2.37;1.43;;;;;;;;;;5017970;28;20482;-89
2022/07/18 09:23:39;;;;;;;1.40;1.30;;;;;;;;;;5021254;28;20928;-91
2022/07/18 09:26:06;;;;;;;1.27;1.27;;;;;;;;;;5017645;28;20482;-89
2022/07/18 09:28:52;;;;;;;1.73;1.60;;;;;;;;;;5005451;28;20415;-89
2022/07/18 09:31:24;;;;;;;4.23;1.80;;;;;;;;;;5016432;28;20525;-91
2022/07/18 09:33:53;;;;;;;1.70;1.70;;;;;;;;;;5032970;28;20415;-89
2022/07/18 09:36:20;;;;;;;1.57;1.47;;;;;;;;;;5025350;28;20418;-88
2022/07/18 09:38:46;;;;;;;1.80;1.77;;;;;;;;;;5002053;28;20607;-91
2022/07/18 09:41:12;;;;;;;2.37;1.37;;;;;;;;;;5008978;28;21241;-90
2022/07/18 09:43:39;;;;;;;3.74;2.00;;;;;;;;;;4324945;28;10000618;-90
2022/07/18 09:46:05;;;;;;;1.30;1.30;;;;;;;;;;5011213;28;20208;-90
2022/07/18 09:48:35;;;;;;;1.13;1.10;;;;;;;;;;5030372;28;20422;-92
2022/07/18 09:51:03;;;;;;;1.93;1.20;;;;;;;;;;5031463;28;20423;-91
2022/07/18 09:53:35;;;;;;;1.73;1.30;;;;;;;;;;5017046;28;20528;-89
2022/07/18 09:56:04;;;;;;;1.77;1.67;;;;;;;;;;5028980;28;20442;-90
2022/07/18 09:58:31;;;;;;;1.17;1.17;;;;;;;;;;5030071;28;20609;-89
2022/07/18 10:00:58;;;;;;;2.80;1.60;;;;;;;;;;4998515;28;20476;-90
2022/07/18 10:03:25;;;;;;;1.10;1.10;;;;;;;;;;5018011;28;20447;-91
2022/07/18 10:05:52;;;;;;;2.20;1.73;;;;;;;;;;5035034;28;20482;-91
2022/07/18 10:08:19;;;;;;;1.37;1.37;;;;;;;;;;5040402;28;20451;-90
2022/07/18 10:10:47;;;;;;;1.60;1.50;;;;;;;;;;5040393;28;20432;-91
2022/07/18 10:13:13;;;;;;;1.40;1.40;;;;;;;;;;5029854;28;20408;-90
2022/07/18 10:15:40;;;;;;;1.40;1.40;;;;;;;;;;5039096;28;20442;-91
2022/07/18 10:18:08;;;;;;;4.20;1.60;;;;;;;;;;5032388;28;20435;-90
2022/07/18 10:20:36;;;;;;;1.23;1.23;;;;;;;;;;5010840;28;20431;-91
2022/07/18 10:23:22;;;;;;;1.90;1.50;;;;;;;;;;5007992;28;20426;-89
2022/07/18 10:26:07;;;;;;;1.50;1.50;;;;;;;;;;5015382;28;20466;-92
2022/07/18 10:28:33;;;;;;;2.40;1.80;;;;;;;;;;5041799;28;20477;-91
2022/07/18 10:31:15;;;;;;;1.33;1.33;;;;;;;;;;5018192;28;20864;-90
2022/07/18 10:33:43;;;;;;;1.57;1.57;;;;;;;;;;5032351;28;20427;-92
2022/07/18 10:36:14;;;;;;;1.40;1.30;;;;;;;;;;5037506;28;20494;-91
2022/07/18 10:39:00;;;;;;;2.40;2.23;;;;;;;;;;5012849;28;20422;-91
2022/07/18 10:41:26;;;;;;;1.50;1.40;;;;;;;;;;5019751;28;21253;-91
2022/07/18 10:43:52;;;;;;;2.67;1.50;;;;;;;;;;5021350;28;20451;-88
2022/07/18 10:46:18;;;;;;;1.30;1.30;;;;;;;;;;5020077;28;20439;-90
2022/07/18 10:48:45;;;;;;;1.10;1.10;;;;;;;;;;5040647;28;20422;-91
2022/07/18 10:51:12;;;;;;;1.83;1.30;;;;;;;;;;5011858;28;20435;-90
2022/07/18 10:53:53;;;;;;;1.37;1.23;;;;;;;;;;5019976;28;20463;-91
2022/07/18 10:56:39;;;;;;;1.60;1.50;;;;;;;;;;5023339;28;20522;-91
2022/07/18 10:59:16;;;;;;;1.60;1.50;;;;;;;;;;5005318;28;20441;-89
2022/07/18 11:01:54;;;;;;;1.97;1.87;;;;;;;;;;5039879;28;20440;-90
2022/07/18 11:04:28;;;;;;;2.27;1.70;;;;;;;;;;5042116;28;20477;-90
2022/07/18 11:07:04;;;;;;;2.33;2.20;;;;;;;;;;5016540;28;20461;-89
2022/07/18 11:09:37;;;;;;;1.80;1.70;;;;;;;;;;5024689;28;20422;-88
2022/07/18 11:12:20;;;;;;;2.93;1.50;;;;;;;;;;5005830;28;20847;-88
2022/07/18 11:15:05;;;;;;;1.80;1.70;;;;;;;;;;5035437;28;20440;-88
2022/07/18 11:17:50;;;;;;;5.10;2.07;;;;;;;;;;5006872;28;20506;-89
2022/07/18 11:20:25;;;;;;;2.23;1.53;;;;;;;;;;5026952;28;20438;-89
2022/07/18 11:22:54;;;;;;;1.87;1.77;;;;;;;;;;5033314;28;20429;-89
2022/07/18 11:25:21;;;;;;;2.13;1.40;;;;;;;;;;5005054;28;20969;-89
2022/07/18 11:27:47;;;;;;;1.83;1.77;;;;;;;;;;5015041;28;20462;-88
2022/07/18 11:30:22;;;;;;;3.30;1.60;;;;;;;;;;5011826;28;20954;-88
2022/07/18 11:32:48;;;;;;;2.20;2.10;;;;;;;;;;5011460;28;20469;-90
2022/07/18 11:35:17;;;;;;;3.60;1.80;;;;;;;;;;5033233;28;20585;-89
2022/07/18 11:37:50;;;;;;;3.63;2.23;;;;;;;;;;5028397;28;20426;-90
2022/07/18 11:40:16;;;;;;;1.87;1.87;;;;;;;;;;5015949;28;20493;-89
2022/07/18 11:42:42;;;;;;;3.70;1.60;;;;;;;;;;5029095;28;20472;-89
2022/07/18 11:45:10;;;;;;;2.93;1.50;;;;;;;;;;5037568;28;20487;-89
2022/07/18 11:47:54;;;;;;;2.47;1.80;;;;;;;;;;5000101;28;20919;-90
2022/07/18 11:50:34;;;;;;;2.20;2.10;;;;;;;;;;5007021;28;20428;-88
2022/07/18 11:53:00;;;;;;;1.80;1.80;;;;;;;;;;5012492;28;20512;-89
2022/07/18 11:55:37;;;;;;;2.00;1.90;;;;;;;;;;5004966;28;20438;-88
2022/07/18 11:58:22;;;;;;;2.17;2.07;;;;;;;;;;5005426;28;20438;-89
2022/07/18 12:00:48;;;;;;;2.13;2.03;;;;;;;;;;5019440;28;20435;-87
2022/07/18 12:03:14;;;;;;;1.80;1.70;;;;;;;;;;5013764;28;20451;-90
2022/07/18 12:05:42;;;;;;;1.47;1.37;;;;;;;;;;5032098;28;20496;-89
2022/07/18 12:08:27;;;;;;;1.67;1.67;;;;;;;;;;5026799;28;20451;-90
2022/07/18 12:11:03;;;;;;;1.70;1.60;;;;;;;;;;5025730;28;20959;-90
2022/07/18 12:13:48;;;;;;;51.43;47.57;;;;;;;;;;4997038;28;20432;-90
2022/07/18 12:16:33;;;;;;;1.80;1.80;;;;;;;;;;5012827;28;20878;-91
2022/07/18 12:19:01;;;;;;;2.00;1.90;;;;;;;;;;5013750;28;20408;-90
2022/07/18 12:21:46;;;;;;;3.33;3.13;;;;;;;;;;5035721;28;20517;-90
2022/07/18 12:24:26;;;;;;;1.63;1.63;;;;;;;;;;5005895;28;20457;-90
2022/07/18 12:27:12;;;;;;;1.70;1.60;;;;;;;;;;5008766;28;20459;-92
2022/07/18 12:29:55;;;;;;;1.70;1.60;;;;;;;;;;5023395;28;20638;-90
2022/07/18 12:32:25;;;;;;;1.70;1.40;;;;;;;;;;5013589;28;20451;-90
2022/07/18 12:34:55;;;;;;;1.73;1.73;;;;;;;;;;5021624;28;20484;-90
2022/07/18 12:37:25;;;;;;;2.40;2.20;;;;;;;;;;5023117;28;20430;-90
2022/07/18 12:39:56;;;;;;;2.20;2.10;;;;;;;;;;5007268;28;20419;-90
2022/07/18 12:42:36;;;;;;;2.33;2.23;;;;;;;;;;5029719;28;20455;-89
2022/07/18 12:45:03;;;;;;;1.37;1.37;;;;;;;;;;5040409;28;20477;-88
2022/07/18 12:47:29;;;;;;;2.80;1.80;;;;;;;;;;5024716;28;20473;-88
2022/07/18 12:49:55;;;;;;;1.57;1.57;;;;;;;;;;5021931;28;20447;-88
2022/07/18 12:52:21;;;;;;;3.23;1.53;;;;;;;;;;5011438;28;21035;-90
2022/07/18 12:54:48;;;;;;;1.83;1.83;;;;;;;;;;5020353;28;20447;-91
2022/07/18 12:57:14;;;;;;;1.50;1.50;;;;;;;;;;5011679;28;20521;-90
2022/07/18 12:59:42;;;;;;;2.37;2.17;;;;;;;;;;5013615;28;20443;-89
2022/07/18 13:02:08;;;;;;;1.70;1.70;;;;;;;;;;5031258;28;20765;-90
2022/07/18 13:04:34;;;;;;;3.17;2.23;;;;;;;;;;5046235;28;20469;-91
2022/07/18 13:07:00;;;;;;;3.37;1.77;;;;;;;;;;5044475;28;20438;-89
2022/07/18 13:09:26;;;;;;;2.00;1.80;;;;;;;;;;5008210;28;20436;-89
2022/07/18 13:11:53;;;;;;;2.30;1.53;;;;;;;;;;5017147;28;20793;-89
2022/07/18 13:14:19;;;;;;;1.90;1.80;;;;;;;;;;5023574;28;20538;-90
2022/07/18 13:16:46;;;;;;;3.37;2.03;;;;;;;;;;4679620;28;10000500;-91
2022/07/18 13:19:13;;;;;;;2.13;2.00;;;;;;;;;;5028396;28;20286;-89
2022/07/18 13:21:39;;;;;;;2.03;1.87;;;;;;;;;;5045857;28;20437;-90
2022/07/18 13:24:05;;;;;;;2.33;2.13;;;;;;;;;;5033584;28;20462;-91
2022/07/18 13:26:31;;;;;;;1.60;1.50;;;;;;;;;;5034943;28;20426;-89
2022/07/18 13:28:57;;;;;;;2.67;1.50;;;;;;;;;;5031247;28;20464;-88
2022/07/18 13:31:23;;;;;;;3.60;1.90;;;;;;;;;;5016943;28;20454;-90
2022/07/18 13:33:55;;;;;;;3.40;1.50;;;;;;;;;;5014892;28;20460;-90
2022/07/18 13:36:21;;;;;;;3.40;2.50;;;;;;;;;;5032427;28;20443;-91
2022/07/18 13:38:47;;;;;;;1.40;1.40;;;;;;;;;;5013860;28;20972;-90
2022/07/18 13:41:15;;;;;;;3.47;1.57;;;;;;;;;;5011818;28;20435;-91
2022/07/18 13:43:52;;;;;;;1.70;1.20;;;;;;;;;;5005421;28;20414;-90
2022/07/18 13:46:21;;;;;;;1.73;1.73;;;;;;;;;;5021538;28;20422;-89
2022/07/18 13:48:49;;;;;;;1.43;1.43;;;;;;;;;;5022393;28;20508;-89
2022/07/18 13:51:21;;;;;;;2.10;2.10;;;;;;;;;;5020252;28;20448;-90
2022/07/18 13:53:56;;;;;;;1.83;1.83;;;;;;;;;;5011838;28;20467;-90
2022/07/18 13:56:25;;;;;;;2.40;1.83;;;;;;;;;;5004153;28;20447;-91
2022/07/18 13:58:54;;;;;;;4.30;2.00;;;;;;;;;;5022051;28;20415;-90
2022/07/18 14:01:25;;;;;;;1.90;1.60;;;;;;;;;;5021768;28;20509;-92
2022/07/18 14:03:52;;;;;;;1.77;1.67;;;;;;;;;;5017551;28;20694;-90
2022/07/18 14:06:18;;;;;;;1.63;1.53;;;;;;;;;;5039973;28;20534;-90
2022/07/18 14:08:55;;;;;;;1.40;1.30;;;;;;;;;;5023330;28;20450;-90
2022/07/18 14:11:21;;;;;;;1.57;1.47;;;;;;;;;;5004204;28;20569;-89
2022/07/18 14:13:50;;;;;;;2.00;1.90;;;;;;;;;;5003535;28;20423;-90
2022/07/18 14:16:19;;;;;;;1.73;1.67;;;;;;;;;;5018899;28;20423;-90
2022/07/18 14:18:48;;;;;;;1.90;1.90;;;;;;;;;;5022631;28;20585;-90
2022/07/18 14:21:14;;;;;;;1.90;1.80;;;;;;;;;;5022757;28;20432;-90
2022/07/18 14:23:40;;;;;;;2.40;2.20;;;;;;;;;;5005077;28;20640;-89
2022/07/18 14:26:06;;;;;;;1.80;1.70;;;;;;;;;;5020677;28;20419;-90
2022/07/18 14:28:32;;;;;;;2.93;1.43;;;;;;;;;;5019502;28;20518;-89
2022/07/18 14:31:00;;;;;;;4.20;1.77;;;;;;;;;;5020281;28;20492;-89
2022/07/18 14:33:26;;;;;;;2.03;1.70;;;;;;;;;;4999677;28;20790;-90
2022/07/18 14:35:52;;;;;;;2.03;1.93;;;;;;;;;;5020660;28;20514;-91
2022/07/18 14:38:18;;;;;;;1.57;1.47;;;;;;;;;;5017690;28;20450;-89
2022/07/18 14:40:44;;;;;;;1.70;1.60;;;;;;;;;;5038340;28;20430;-91
2022/07/18 14:43:10;;;;;;;1.87;1.77;;;;;;;;;;5012567;28;20442;-89
2022/07/18 14:45:36;;;;;;;1.80;1.70;;;;;;;;;;5005648;28;20475;-90
2022/07/18 14:48:03;;;;;;;1.80;1.70;;;;;;;;;;5017118;28;20451;-90
2022/07/18 14:50:29;;;;;;;4.10;3.90;;;;;;;;;;5022020;28;20513;-88
2022/07/18 14:52:57;;;;;;;1.63;1.50;;;;;;;;;;5025172;28;21167;-89
2022/07/18 14:55:23;;;;;;;1.80;1.70;;;;;;;;;;5000108;28;20856;-90
2022/07/18 14:57:49;;;;;;;3.90;1.70;;;;;;;;;;5007015;28;20432;-91
2022/07/18 15:00:16;;;;;;;1.80;1.80;;;;;;;;;;5019258;28;20462;-90